Time;durP1;ratioP1;P1;durP2;ratioP2;P2;SDS_P1;SDS_P2;PMS_P1;PMS_P2;Temp;Humidity;BMP_temperature;BMP_pressure;BME280_temperature;BME280_humidity;BME280_pressure;Samples;Min_cycle;Max_cycle;Signal;HPM_P1;HPM_P2
2023/06/11 00:02:32;;;;;;;14.70;8.48;;;;;;;;;;5004897;28;20109;-88
2023/06/11 00:05:15;;;;;;;13.63;7.80;;;;;;;;;;5020588;28;20108;-88
2023/06/11 00:07:41;;;;;;;15.30;9.30;;;;;;;;;;4999372;28;20057;-88
2023/06/11 00:10:10;;;;;;;16.77;9.00;;;;;;;;;;4998082;28;20526;-88
2023/06/11 00:12:37;;;;;;;13.52;9.23;;;;;;;;;;5014169;28;20053;-88
2023/06/11 00:15:06;;;;;;;17.80;9.15;;;;;;;;;;5014016;28;20038;-88
2023/06/11 00:17:33;;;;;;;14.63;9.32;;;;;;;;;;5013998;28;20128;-88
2023/06/11 00:20:10;;;;;;;18.38;9.90;;;;;;;;;;4997596;28;20042;-89
2023/06/11 00:22:40;;;;;;;15.07;9.82;;;;;;;;;;4996989;28;20054;-88
2023/06/11 00:25:14;;;;;;;14.98;9.15;;;;;;;;;;5014247;28;20042;-88
2023/06/11 00:27:46;;;;;;;13.85;9.30;;;;;;;;;;4997547;28;20052;-88
2023/06/11 00:30:16;;;;;;;15.23;9.50;;;;;;;;;;4997447;28;20046;-88
2023/06/11 00:32:46;;;;;;;14.13;9.07;;;;;;;;;;5013771;28;20444;-88
2023/06/11 00:35:15;;;;;;;14.52;9.40;;;;;;;;;;4997627;28;20092;-88
2023/06/11 00:37:49;;;;;;;14.98;8.75;;;;;;;;;;4994168;28;20038;-88
2023/06/11 00:40:19;;;;;;;13.93;9.23;;;;;;;;;;4978125;28;20042;-88
2023/06/11 00:42:49;;;;;;;13.45;8.65;;;;;;;;;;4978258;28;20038;-88
2023/06/11 00:45:15;;;;;;;15.20;8.48;;;;;;;;;;4977884;28;20046;-88
2023/06/11 00:47:41;;;;;;;15.02;8.90;;;;;;;;;;4978080;28;20042;-88
2023/06/11 00:50:15;;;;;;;14.35;8.93;;;;;;;;;;4994225;28;20547;-87
2023/06/11 00:52:42;;;;;;;13.48;8.75;;;;;;;;;;4994265;28;20085;-88
2023/06/11 00:55:14;;;;;;;11.32;7.78;;;;;;;;;;4994475;28;20042;-88
2023/06/11 00:57:49;;;;;;;10.88;7.72;;;;;;;;;;4978086;28;20046;-88
2023/06/11 01:00:18;;;;;;;9.60;7.70;;;;;;;;;;4978263;28;20097;-88
2023/06/11 01:02:47;;;;;;;11.77;8.68;;;;;;;;;;4977854;28;20073;-88
2023/06/11 01:05:17;;;;;;;13.00;8.50;;;;;;;;;;4977930;28;20759;-89
2023/06/11 01:07:50;;;;;;;11.60;7.78;;;;;;;;;;4977522;28;20509;-88
2023/06/11 01:10:27;;;;;;;13.50;8.82;;;;;;;;;;4976780;28;20042;-88
2023/06/11 01:12:58;;;;;;;14.63;9.50;;;;;;;;;;4977659;28;20374;-88
2023/06/11 01:15:33;;;;;;;14.82;10.23;;;;;;;;;;4978802;28;20112;-87
2023/06/11 01:18:12;;;;;;;11.73;10.02;;;;;;;;;;4993347;28;20487;-88
2023/06/11 01:20:54;;;;;;;13.60;9.75;;;;;;;;;;4977396;28;20050;-89
2023/06/11 01:23:20;;;;;;;12.55;9.70;;;;;;;;;;4997126;28;20133;-88
2023/06/11 01:26:04;;;;;;;24.30;11.00;;;;;;;;;;5013556;28;20124;-87
2023/06/11 01:28:33;;;;;;;13.55;10.25;;;;;;;;;;5013202;28;20125;-88
2023/06/11 01:31:07;;;;;;;13.00;9.65;;;;;;;;;;5013096;28;20476;-87
2023/06/11 01:33:36;;;;;;;12.30;9.70;;;;;;;;;;4997308;28;20050;-88
2023/06/11 01:36:05;;;;;;;13.98;10.07;;;;;;;;;;4996738;28;20060;-88
2023/06/11 01:38:41;;;;;;;14.63;9.93;;;;;;;;;;4993499;28;20042;-87
2023/06/11 01:41:12;;;;;;;13.57;10.20;;;;;;;;;;4978259;28;20533;-87
2023/06/11 01:43:46;;;;;;;14.57;10.18;;;;;;;;;;4987514;28;20046;-87
2023/06/11 01:46:17;;;;;;;15.10;10.50;;;;;;;;;;4997691;28;20060;-87
2023/06/11 01:48:46;;;;;;;14.23;9.48;;;;;;;;;;4996624;28;20037;-87
2023/06/11 01:51:20;;;;;;;11.07;9.90;;;;;;;;;;5009602;28;20121;-87
2023/06/11 01:53:49;;;;;;;14.90;10.60;;;;;;;;;;5002092;28;20539;-88
2023/06/11 01:56:15;;;;;;;14.27;9.98;;;;;;;;;;5011961;28;20049;-87
2023/06/11 01:58:45;;;;;;;14.80;9.48;;;;;;;;;;4996580;28;20049;-88
2023/06/11 02:01:20;;;;;;;17.33;10.77;;;;;;;;;;4995811;28;20053;-87
2023/06/11 02:03:46;;;;;;;15.47;10.40;;;;;;;;;;5013702;28;20121;-87
2023/06/11 02:06:13;;;;;;;13.52;10.85;;;;;;;;;;5000707;28;20096;-87
2023/06/11 02:08:44;;;;;;;15.05;11.20;;;;;;;;;;5025609;28;20042;-87
2023/06/11 02:11:18;;;;;;;14.80;10.35;;;;;;;;;;5011053;28;20049;-87
2023/06/11 02:13:53;;;;;;;14.00;10.55;;;;;;;;;;5000719;28;20041;-88
2023/06/11 02:16:27;;;;;;;15.37;10.77;;;;;;;;;;4997889;28;20138;-88
2023/06/11 02:18:58;;;;;;;13.10;10.57;;;;;;;;;;4997359;28;20108;-88
2023/06/11 02:21:27;;;;;;;16.23;10.50;;;;;;;;;;4999804;28;20057;-87
2023/06/11 02:23:53;;;;;;;15.18;10.50;;;;;;;;;;5016057;28;20134;-88
2023/06/11 02:26:22;;;;;;;13.60;10.70;;;;;;;;;;5016338;28;20049;-87
2023/06/11 02:28:52;;;;;;;15.07;11.02;;;;;;;;;;5016735;28;20046;-88
2023/06/11 02:31:18;;;;;;;12.57;11.27;;;;;;;;;;4988647;28;20089;-87
2023/06/11 02:33:47;;;;;;;13.32;10.60;;;;;;;;;;4996468;28;20043;-87
2023/06/11 02:36:16;;;;;;;14.68;10.95;;;;;;;;;;5007622;28;20057;-87
2023/06/11 02:38:42;;;;;;;13.95;11.27;;;;;;;;;;4995694;28;20058;-88
2023/06/11 02:41:09;;;;;;;15.88;11.35;;;;;;;;;;4996780;28;20045;-87
2023/06/11 02:43:35;;;;;;;16.55;12.10;;;;;;;;;;4996292;28;20042;-88
2023/06/11 02:46:04;;;;;;;13.40;11.50;;;;;;;;;;4979927;28;20050;-88
2023/06/11 02:48:30;;;;;;;15.82;11.90;;;;;;;;;;4981269;28;20042;-88
2023/06/11 02:50:59;;;;;;;15.50;12.02;;;;;;;;;;4980194;28;20081;-88
2023/06/11 02:53:35;;;;;;;13.70;11.60;;;;;;;;;;4980197;28;20050;-88
2023/06/11 02:56:06;;;;;;;15.75;12.75;;;;;;;;;;4995240;28;20444;-89
2023/06/11 02:58:33;;;;;;;15.55;12.77;;;;;;;;;;5012259;28;20492;-88
2023/06/11 03:01:09;;;;;;;15.43;12.10;;;;;;;;;;4998840;28;20060;-88
2023/06/11 03:03:35;;;;;;;;;;;;;;;;;;5016412;28;20045;-88
2023/06/11 03:06:01;;;;;;;16.05;11.65;;;;;;;;;;4999347;28;20332;-88
2023/06/11 03:08:32;;;;;;;14.13;11.75;;;;;;;;;;5015666;28;20095;-88
2023/06/11 03:10:58;;;;;;;15.35;11.63;;;;;;;;;;5014523;28;20081;-88
2023/06/11 03:13:30;;;;;;;15.57;12.50;;;;;;;;;;4995552;28;20054;-88
2023/06/11 03:15:56;;;;;;;14.82;11.77;;;;;;;;;;4995965;28;20512;-88
2023/06/11 03:18:25;;;;;;;16.25;11.82;;;;;;;;;;4994990;28;20413;-88
2023/06/11 03:20:51;;;;;;;14.20;12.20;;;;;;;;;;4993003;28;20046;-88
2023/06/11 03:23:32;;;;;;;17.42;13.05;;;;;;;;;;5015550;28;20042;-88
2023/06/11 03:26:09;;;;;;;14.18;12.68;;;;;;;;;;5000096;28;20037;-88
2023/06/11 03:28:40;;;;;;;15.98;12.40;;;;;;;;;;4995458;28;20046;-88
2023/06/11 03:31:12;;;;;;;15.38;11.90;;;;;;;;;;4995400;28;20129;-87
2023/06/11 03:33:38;;;;;;;14.85;12.20;;;;;;;;;;4985242;28;20054;-88
2023/06/11 03:36:07;;;;;;;15.65;12.07;;;;;;;;;;4998435;28;20081;-88
2023/06/11 03:38:33;;;;;;;14.88;12.80;;;;;;;;;;4998492;28;20124;-88
2023/06/11 03:40:59;;;;;;;15.05;12.25;;;;;;;;;;4994897;28;20044;-88
2023/06/11 03:43:25;;;;;;;15.18;12.93;;;;;;;;;;4987684;28;20128;-88
2023/06/11 03:45:52;;;;;;;17.33;12.68;;;;;;;;;;4994869;28;20050;-88
2023/06/11 03:48:21;;;;;;;13.77;11.85;;;;;;;;;;5009044;28;20058;-88
2023/06/11 03:50:47;;;;;;;17.52;13.40;;;;;;;;;;4998275;28;20134;-87
2023/06/11 03:53:16;;;;;;;16.30;12.93;;;;;;;;;;5014596;28;20058;-88
2023/06/11 03:55:50;;;;;;;18.98;13.48;;;;;;;;;;4997681;28;20447;-87
2023/06/11 03:58:19;;;;;;;16.40;13.23;;;;;;;;;;5010004;28;20381;-88
2023/06/11 04:00:55;;;;;;;14.52;12.48;;;;;;;;;;4999247;28;20111;-88
2023/06/11 04:03:23;;;;;;;14.65;12.98;;;;;;;;;;4994573;28;20045;-88
2023/06/11 04:05:52;;;;;;;17.30;12.90;;;;;;;;;;5001525;28;20038;-87
2023/06/11 04:08:21;;;;;;;15.68;13.02;;;;;;;;;;5014053;28;20037;-87
2023/06/11 04:11:02;;;;;;;14.60;13.00;;;;;;;;;;5004668;28;20096;-88
2023/06/11 04:13:28;;;;;;;16.38;13.15;;;;;;;;;;5000713;28;20046;-87
2023/06/11 04:15:56;;;;;;;17.00;13.70;;;;;;;;;;4980012;28;20069;-88
2023/06/11 04:18:22;;;;;;;16.33;12.63;;;;;;;;;;4978300;28;20046;-88
2023/06/11 04:20:49;;;;;;;15.80;12.45;;;;;;;;;;4993799;28;20133;-88
2023/06/11 04:23:15;;;;;;;15.27;12.45;;;;;;;;;;4978615;28;20050;-88
2023/06/11 04:25:43;;;;;;;15.68;13.15;;;;;;;;;;5013387;28;20432;-88
2023/06/11 04:28:10;;;;;;;17.08;12.57;;;;;;;;;;4997374;28;20042;-88
2023/06/11 04:30:36;;;;;;;17.65;13.00;;;;;;;;;;5009916;28;20053;-87
2023/06/11 04:33:04;;;;;;;17.48;13.00;;;;;;;;;;4996169;28;20350;-89
2023/06/11 04:35:34;;;;;;;14.50;12.20;;;;;;;;;;4996815;28;20133;-88
2023/06/11 04:38:05;;;;;;;14.70;13.20;;;;;;;;;;5012580;28;20060;-87
2023/06/11 04:40:33;;;;;;;15.77;13.15;;;;;;;;;;4997203;28;20109;-88
2023/06/11 04:43:00;;;;;;;16.52;12.77;;;;;;;;;;4993590;28;20039;-87
2023/06/11 04:45:30;;;;;;;13.88;12.48;;;;;;;;;;4985416;28;20153;-88
2023/06/11 04:48:05;;;;;;;14.02;12.30;;;;;;;;;;4998802;28;20046;-88
2023/06/11 04:50:32;;;;;;;14.50;12.88;;;;;;;;;;5013369;28;20095;-87
2023/06/11 04:53:12;;;;;;;14.48;12.65;;;;;;;;;;4997389;28;20038;-87
2023/06/11 04:55:46;;;;;;;14.15;12.57;;;;;;;;;;4998007;28;20037;-88
2023/06/11 04:58:23;;;;;;;15.77;12.25;;;;;;;;;;5013157;28;20042;-88
2023/06/11 05:00:56;;;;;;;13.70;12.32;;;;;;;;;;4997062;28;20050;-89
2023/06/11 05:03:31;;;;;;;14.18;12.70;;;;;;;;;;5014396;28;20052;-89
2023/06/11 05:06:37;;;;;;;14.35;12.70;;;;;;;;;;4999119;28;20046;-88
2023/06/11 05:09:13;;;;;;;14.38;11.85;;;;;;;;;;5009088;28;20054;-88
2023/06/11 05:12:18;;;;;;;13.70;12.30;;;;;;;;;;4996871;28;20493;-88
2023/06/11 05:14:44;;;;;;;15.45;12.25;;;;;;;;;;4934120;28;20060;-86
2023/06/11 05:17:10;;;;;;;12.93;11.48;;;;;;;;;;4995155;28;20137;-87
2023/06/11 05:19:46;;;;;;;13.48;12.07;;;;;;;;;;5012237;28;20133;-88
2023/06/11 05:22:12;;;;;;;13.63;12.20;;;;;;;;;;4995500;28;20104;-85
2023/06/11 05:24:42;;;;;;;13.65;12.32;;;;;;;;;;4995196;28;20152;-86
2023/06/11 05:27:09;;;;;;;13.52;12.15;;;;;;;;;;5010214;28;20050;-86
2023/06/11 05:29:37;;;;;;;13.43;11.75;;;;;;;;;;5004822;28;20048;-87
2023/06/11 05:32:05;;;;;;;15.25;12.52;;;;;;;;;;5010429;28;20050;-87
2023/06/11 05:34:33;;;;;;;25.67;12.77;;;;;;;;;;4977864;28;20081;-86
2023/06/11 05:36:59;;;;;;;14.18;11.70;;;;;;;;;;5008090;28;20053;-86
2023/06/11 05:39:25;;;;;;;14.65;12.20;;;;;;;;;;4984625;28;20081;-85
2023/06/11 05:41:57;;;;;;;14.30;12.38;;;;;;;;;;5009475;28;20121;-87
2023/06/11 05:44:31;;;;;;;13.68;12.27;;;;;;;;;;4992096;28;20046;-87
2023/06/11 05:47:01;;;;;;;15.82;12.48;;;;;;;;;;4994320;28;20049;-87
2023/06/11 05:49:32;;;;;;;13.75;12.35;;;;;;;;;;4978081;28;20046;-87
2023/06/11 05:52:01;;;;;;;14.13;11.60;;;;;;;;;;4995792;28;20038;-86
2023/06/11 05:54:27;;;;;;;15.98;11.90;;;;;;;;;;5012376;28;20388;-89
2023/06/11 05:56:54;;;;;;;14.05;11.77;;;;;;;;;;4996630;28;20042;-86
2023/06/11 05:59:20;;;;;;;14.05;11.63;;;;;;;;;;5005099;28;20050;-87
2023/06/11 06:01:47;;;;;;;14.68;12.15;;;;;;;;;;5000665;28;20057;-86
2023/06/11 06:04:15;;;;;;;13.73;12.15;;;;;;;;;;5017846;28;20057;-86
2023/06/11 06:06:42;;;;;;;13.73;11.57;;;;;;;;;;5000414;28;20578;-87
2023/06/11 06:09:11;;;;;;;14.00;12.18;;;;;;;;;;5011271;28;20045;-87
2023/06/11 06:11:37;;;;;;;14.32;12.23;;;;;;;;;;4981536;28;20046;-87
2023/06/11 06:14:04;;;;;;;14.55;11.75;;;;;;;;;;4992054;28;20081;-87
2023/06/11 06:16:31;;;;;;;13.18;11.75;;;;;;;;;;5002965;28;20050;-87
2023/06/11 06:18:57;;;;;;;13.27;11.88;;;;;;;;;;4998215;28;20043;-87
2023/06/11 06:21:23;;;;;;;13.35;11.98;;;;;;;;;;4996683;28;20059;-87
2023/06/11 06:23:51;;;;;;;13.00;11.65;;;;;;;;;;4980975;28;20401;-87
2023/06/11 06:26:17;;;;;;;14.07;11.90;;;;;;;;;;4981913;28;20104;-87
2023/06/11 06:28:43;;;;;;;14.80;12.07;;;;;;;;;;4981005;28;20053;-87
2023/06/11 06:31:12;;;;;;;15.35;11.98;;;;;;;;;;4996832;28;20405;-87
2023/06/11 06:33:38;;;;;;;13.02;11.73;;;;;;;;;;4982328;28;20410;-87
2023/06/11 06:36:05;;;;;;;12.70;11.02;;;;;;;;;;5011901;28;20053;-87
2023/06/11 06:38:32;;;;;;;13.55;12.07;;;;;;;;;;5015138;28;20470;-87
2023/06/11 06:40:58;;;;;;;12.98;11.38;;;;;;;;;;4998582;28;20077;-86
2023/06/11 06:43:24;;;;;;;15.40;11.32;;;;;;;;;;5016449;28;20037;-87
2023/06/11 06:45:50;;;;;;;13.07;11.48;;;;;;;;;;5015928;28;20099;-87
2023/06/11 06:48:17;;;;;;;12.93;11.48;;;;;;;;;;5000402;28;20052;-87
2023/06/11 06:50:43;;;;;;;12.52;11.27;;;;;;;;;;4999846;28;20084;-87
2023/06/11 06:53:09;;;;;;;12.75;11.45;;;;;;;;;;4980388;28;20038;-87
2023/06/11 06:55:35;;;;;;;12.23;11.02;;;;;;;;;;4979976;28;20096;-86
2023/06/11 06:58:02;;;;;;;12.23;11.07;;;;;;;;;;4980272;28;20101;-87
2023/06/11 07:00:28;;;;;;;12.30;11.00;;;;;;;;;;4995855;28;20042;-87
2023/06/11 07:02:57;;;;;;;13.27;11.38;;;;;;;;;;4979307;28;20042;-87
2023/06/11 07:05:27;;;;;;;13.73;11.10;;;;;;;;;;4994239;28;20042;-87
2023/06/11 07:07:53;;;;;;;12.00;10.68;;;;;;;;;;4998842;28;20046;-87
2023/06/11 07:10:20;;;;;;;12.98;11.68;;;;;;;;;;5015399;28;20132;-88
2023/06/11 07:12:46;;;;;;;16.10;11.40;;;;;;;;;;5014662;28;20087;-87
2023/06/11 07:15:12;;;;;;;16.08;11.13;;;;;;;;;;5015202;28;20436;-87
2023/06/11 07:17:38;;;;;;;11.93;10.65;;;;;;;;;;4998574;28;20045;-87
2023/06/11 07:20:07;;;;;;;12.57;11.25;;;;;;;;;;5015025;28;20049;-87
2023/06/11 07:22:33;;;;;;;12.43;11.13;;;;;;;;;;5014401;28;20062;-87
2023/06/11 07:25:00;;;;;;;13.10;11.02;;;;;;;;;;4998250;28;20496;-87
2023/06/11 07:27:27;;;;;;;12.35;10.68;;;;;;;;;;5011381;28;20038;-87
2023/06/11 07:29:53;;;;;;;12.93;11.45;;;;;;;;;;4979083;28;20053;-87
2023/06/11 07:32:19;;;;;;;14.35;11.98;;;;;;;;;;4978560;28;20123;-87
2023/06/11 07:34:45;;;;;;;12.40;10.98;;;;;;;;;;4992463;28;20046;-87
2023/06/11 07:37:13;;;;;;;12.50;11.20;;;;;;;;;;5014718;28;20053;-88
2023/06/11 07:39:39;;;;;;;12.32;10.70;;;;;;;;;;4998405;28;20080;-87
2023/06/11 07:42:07;;;;;;;12.38;11.05;;;;;;;;;;4997750;28;20419;-87
2023/06/11 07:44:33;;;;;;;13.13;11.75;;;;;;;;;;4997845;28;20052;-87
2023/06/11 07:46:59;;;;;;;11.90;10.48;;;;;;;;;;5014483;28;20042;-87
2023/06/11 07:49:25;;;;;;;13.18;11.77;;;;;;;;;;4997872;28;20076;-87
2023/06/11 07:51:51;;;;;;;12.48;11.27;;;;;;;;;;4997668;28;20049;-87
2023/06/11 07:54:18;;;;;;;13.57;11.77;;;;;;;;;;4999531;28;20042;-87
2023/06/11 07:56:46;;;;;;;12.70;11.50;;;;;;;;;;4978984;28;20116;-87
2023/06/11 07:59:13;;;;;;;13.00;11.27;;;;;;;;;;4996392;28;20495;-88
2023/06/11 08:01:39;;;;;;;11.98;10.80;;;;;;;;;;5010583;28;20141;-88
2023/06/11 08:04:05;;;;;;;12.38;11.18;;;;;;;;;;4994163;28;20109;-87
2023/06/11 08:06:31;;;;;;;13.43;12.10;;;;;;;;;;4977896;28;20049;-87
2023/06/11 08:08:57;;;;;;;12.27;10.90;;;;;;;;;;4994761;28;20053;-87
2023/06/11 08:11:24;;;;;;;11.82;10.65;;;;;;;;;;4993959;28;20054;-87
2023/06/11 08:13:50;;;;;;;11.98;10.68;;;;;;;;;;4995388;28;20547;-88
2023/06/11 08:16:17;;;;;;;14.05;11.82;;;;;;;;;;5010712;28;20038;-87
2023/06/11 08:18:43;;;;;;;12.38;10.95;;;;;;;;;;5011525;28;20046;-87
2023/06/11 08:21:10;;;;;;;13.02;11.30;;;;;;;;;;5017062;28;20049;-88
2023/06/11 08:23:36;;;;;;;11.63;10.40;;;;;;;;;;5013988;28;20049;-87
2023/06/11 08:26:06;;;;;;;11.85;10.65;;;;;;;;;;5013575;28;20041;-88
2023/06/11 08:28:32;;;;;;;11.25;10.18;;;;;;;;;;5013398;28;20049;-87
2023/06/11 08:30:58;;;;;;;12.57;10.30;;;;;;;;;;4994016;28;20455;-88
2023/06/11 08:33:25;;;;;;;12.10;10.68;;;;;;;;;;4977995;28;20100;-88
2023/06/11 08:35:51;;;;;;;13.13;11.57;;;;;;;;;;4977716;28;20050;-87
2023/06/11 08:38:17;;;;;;;12.20;10.73;;;;;;;;;;5003515;28;20400;-88
2023/06/11 08:40:43;;;;;;;12.85;11.55;;;;;;;;;;5013099;28;20042;-87
2023/06/11 08:43:10;;;;;;;12.20;10.70;;;;;;;;;;5014280;28;20135;-87
2023/06/11 08:45:36;;;;;;;12.30;11.10;;;;;;;;;;4997026;28;20085;-87
2023/06/11 08:48:03;;;;;;;11.90;10.60;;;;;;;;;;5013221;28;20124;-88
2023/06/11 08:50:32;;;;;;;12.57;11.18;;;;;;;;;;5013134;28;20041;-87
2023/06/11 08:53:01;;;;;;;12.82;11.02;;;;;;;;;;4996640;28;20053;-87
2023/06/11 08:55:31;;;;;;;12.68;10.63;;;;;;;;;;5013051;28;20436;-88
2023/06/11 08:57:57;;;;;;;11.60;10.38;;;;;;;;;;5012885;28;20496;-87
2023/06/11 09:00:25;;;;;;;13.73;10.90;;;;;;;;;;4996744;28;20042;-88
2023/06/11 09:02:51;;;;;;;12.82;11.38;;;;;;;;;;4996410;28;20057;-88
2023/06/11 09:05:18;;;;;;;11.82;10.63;;;;;;;;;;5013123;28;20037;-88
2023/06/11 09:07:51;;;;;;;12.27;11.02;;;;;;;;;;4996705;28;20038;-88
2023/06/11 09:10:18;;;;;;;12.27;11.07;;;;;;;;;;4996336;28;20433;-88
2023/06/11 09:12:45;;;;;;;11.82;10.18;;;;;;;;;;4996416;28;20049;-88
2023/06/11 09:15:12;;;;;;;11.45;10.38;;;;;;;;;;4996255;28;20069;-88
2023/06/11 09:17:46;;;;;;;11.63;10.43;;;;;;;;;;4995225;28;20069;-88
2023/06/11 09:20:14;;;;;;;11.38;10.23;;;;;;;;;;4994213;28;20054;-88
2023/06/11 09:22:42;;;;;;;11.88;10.40;;;;;;;;;;4993625;28;20132;-87
2023/06/11 09:25:19;;;;;;;12.15;10.85;;;;;;;;;;5010716;28;20053;-87
2023/06/11 09:27:46;;;;;;;12.32;10.27;;;;;;;;;;4996434;28;20046;-87
2023/06/11 09:30:17;;;;;;;11.50;10.40;;;;;;;;;;4990465;28;20069;-87
2023/06/11 09:32:44;;;;;;;11.25;10.23;;;;;;;;;;4998744;28;20436;-88
2023/06/11 09:35:16;;;;;;;11.68;10.50;;;;;;;;;;4991369;28;20133;-87
2023/06/11 09:37:46;;;;;;;11.88;10.68;;;;;;;;;;5010275;28;20046;-86
2023/06/11 09:40:15;;;;;;;12.85;10.73;;;;;;;;;;5007323;28;20042;-86
2023/06/11 09:42:43;;;;;;;12.80;10.40;;;;;;;;;;4993463;28;20060;-85
2023/06/11 09:45:20;;;;;;;11.18;10.02;;;;;;;;;;4993214;28;20044;-86
2023/06/11 09:47:47;;;;;;;11.43;10.23;;;;;;;;;;5009020;28;20042;-86
2023/06/11 09:50:17;;;;;;;11.93;9.88;;;;;;;;;;5002497;28;20076;-86
2023/06/11 09:52:44;;;;;;;11.60;10.50;;;;;;;;;;5010132;28;20804;-86
2023/06/11 09:55:11;;;;;;;12.75;10.23;;;;;;;;;;4990408;28;20046;-86
2023/06/11 09:57:40;;;;;;;11.55;10.35;;;;;;;;;;4985821;28;20072;-86
2023/06/11 10:00:09;;;;;;;11.27;10.13;;;;;;;;;;5011440;28;20035;-86
2023/06/11 10:02:39;;;;;;;11.57;10.27;;;;;;;;;;4976151;28;20053;-86
2023/06/11 10:05:06;;;;;;;11.13;10.02;;;;;;;;;;4984217;28;20042;-85
2023/06/11 10:07:36;;;;;;;11.88;10.68;;;;;;;;;;4976097;28;20500;-86
2023/06/11 10:10:02;;;;;;;11.32;10.13;;;;;;;;;;4989397;28;20045;-86
2023/06/11 10:12:33;;;;;;;11.60;9.73;;;;;;;;;;4992152;28;20038;-88
2023/06/11 10:15:00;;;;;;;10.32;9.43;;;;;;;;;;4992625;28;20255;-87
2023/06/11 10:17:43;;;;;;;11.30;10.20;;;;;;;;;;5012011;28;20045;-88
2023/06/11 10:20:18;;;;;;;11.48;9.77;;;;;;;;;;4998872;28;20061;-87
2023/06/11 10:22:45;;;;;;;11.50;10.50;;;;;;;;;;5012515;28;20132;-87
2023/06/11 10:25:12;;;;;;;10.70;9.60;;;;;;;;;;5011954;28;20156;-87
2023/06/11 10:27:42;;;;;;;11.65;10.00;;;;;;;;;;5009679;28;20042;-88
2023/06/11 10:30:09;;;;;;;10.45;9.50;;;;;;;;;;4977616;28;20122;-87
2023/06/11 10:32:35;;;;;;;10.90;9.90;;;;;;;;;;4993800;28;20127;-87
2023/06/11 10:35:31;;;;;;;10.00;9.02;;;;;;;;;;5010450;28;20074;-88
2023/06/11 10:38:07;;;;;;;10.50;9.40;;;;;;;;;;4975995;28;20050;-89
2023/06/11 10:40:43;;;;;;;10.68;9.60;;;;;;;;;;4975756;28;20086;-88
2023/06/11 10:43:13;;;;;;;10.23;9.23;;;;;;;;;;5009102;28;20396;-87
2023/06/11 10:45:40;;;;;;;10.50;9.50;;;;;;;;;;4998513;28;20092;-87
2023/06/11 10:48:06;;;;;;;10.40;9.40;;;;;;;;;;4998800;28;20064;-86
2023/06/11 10:50:33;;;;;;;10.40;9.40;;;;;;;;;;5008461;28;20389;-86
2023/06/11 10:53:05;;;;;;;10.32;9.40;;;;;;;;;;4997132;28;20052;-84
2023/06/11 10:55:32;;;;;;;10.55;9.45;;;;;;;;;;4998414;28;20042;-84
2023/06/11 10:57:59;;;;;;;9.77;8.82;;;;;;;;;;4998388;28;20041;-84
2023/06/11 11:00:41;;;;;;;11.55;8.60;;;;;;;;;;4998519;28;20465;-86
2023/06/11 11:03:09;;;;;;;10.00;9.07;;;;;;;;;;4999008;28;20057;-84
2023/06/11 11:05:35;;;;;;;9.73;8.60;;;;;;;;;;4998673;28;20077;-84
2023/06/11 11:08:01;;;;;;;9.70;8.75;;;;;;;;;;4995864;28;20112;-84
2023/06/11 11:10:28;;;;;;;10.35;9.35;;;;;;;;;;4979359;28;20153;-85
2023/06/11 11:12:54;;;;;;;10.10;9.02;;;;;;;;;;4995733;28;20042;-85
2023/06/11 11:15:21;;;;;;;9.77;8.10;;;;;;;;;;4985392;28;20133;-84
2023/06/11 11:17:48;;;;;;;10.63;8.38;;;;;;;;;;4996092;28;20046;-84
2023/06/11 11:20:17;;;;;;;9.15;8.25;;;;;;;;;;5011617;28;20042;-84
2023/06/11 11:22:47;;;;;;;9.32;8.48;;;;;;;;;;4996860;28;20089;-84
2023/06/11 11:25:15;;;;;;;9.30;8.02;;;;;;;;;;4980177;28;20053;-84
2023/06/11 11:27:43;;;;;;;9.43;8.02;;;;;;;;;;5005228;28;20060;-85
2023/06/11 11:30:09;;;;;;;8.57;7.70;;;;;;;;;;4995758;28;20050;-84
2023/06/11 11:32:36;;;;;;;9.15;8.25;;;;;;;;;;5005283;28;20038;-84
2023/06/11 11:35:04;;;;;;;8.55;7.70;;;;;;;;;;5015070;28;20046;-84
2023/06/11 11:37:31;;;;;;;9.20;8.30;;;;;;;;;;5015236;28;20052;-85
2023/06/11 11:40:06;;;;;;;9.93;7.15;;;;;;;;;;4999327;28;20046;-85
2023/06/11 11:42:32;;;;;;;10.90;8.40;;;;;;;;;;4998936;28;20405;-84
2023/06/11 11:44:59;;;;;;;10.00;7.97;;;;;;;;;;5016692;28;20042;-85
2023/06/11 11:47:27;;;;;;;8.68;7.57;;;;;;;;;;4999342;28;20046;-84
2023/06/11 11:49:57;;;;;;;7.95;7.25;;;;;;;;;;4999011;28;20045;-84
2023/06/11 11:52:23;;;;;;;8.65;7.82;;;;;;;;;;4998733;28;20052;-84
2023/06/11 11:54:50;;;;;;;8.15;7.25;;;;;;;;;;4997753;28;20520;-85
2023/06/11 11:57:20;;;;;;;8.50;7.70;;;;;;;;;;5015374;28;20050;-84
2023/06/11 11:59:47;;;;;;;7.95;7.22;;;;;;;;;;5016539;28;20050;-85
2023/06/11 12:02:13;;;;;;;8.32;7.50;;;;;;;;;;4988918;28;20133;-83
2023/06/11 12:04:46;;;;;;;8.35;7.20;;;;;;;;;;5000168;28;20042;-84
2023/06/11 12:07:13;;;;;;;7.90;7.20;;;;;;;;;;5008883;28;20042;-84
2023/06/11 12:09:39;;;;;;;9.10;8.20;;;;;;;;;;5025387;28;20042;-84
2023/06/11 12:12:07;;;;;;;7.78;6.97;;;;;;;;;;5006979;28;20041;-84
2023/06/11 12:14:33;;;;;;;11.38;7.95;;;;;;;;;;4998621;28;20049;-84
2023/06/11 12:17:00;;;;;;;8.10;7.40;;;;;;;;;;4997979;28;20056;-84
2023/06/11 12:19:28;;;;;;;8.82;7.05;;;;;;;;;;4995473;28;20038;-84
2023/06/11 12:21:57;;;;;;;8.35;7.47;;;;;;;;;;4986584;28;20429;-84
2023/06/11 12:24:24;;;;;;;7.55;6.82;;;;;;;;;;4988595;28;20138;-84
2023/06/11 12:26:51;;;;;;;9.52;7.30;;;;;;;;;;4999845;28;20046;-84
2023/06/11 12:29:18;;;;;;;8.30;7.55;;;;;;;;;;5014518;28;20042;-84
2023/06/11 12:31:46;;;;;;;8.98;6.97;;;;;;;;;;4997740;28;20045;-84
2023/06/11 12:34:15;;;;;;;8.35;7.55;;;;;;;;;;4997577;28;20133;-84
2023/06/11 12:36:45;;;;;;;8.88;7.80;;;;;;;;;;4997704;28;20049;-84
2023/06/11 12:39:11;;;;;;;8.15;6.78;;;;;;;;;;5009607;28;20128;-84
2023/06/11 12:41:37;;;;;;;7.68;6.85;;;;;;;;;;4977996;28;20053;-84
2023/06/11 12:44:03;;;;;;;7.70;7.00;;;;;;;;;;4993894;28;20118;-84
2023/06/11 12:46:36;;;;;;;9.25;8.18;;;;;;;;;;4977294;28;20508;-84
2023/06/11 12:49:02;;;;;;;8.48;6.82;;;;;;;;;;5006469;28;20119;-84
2023/06/11 12:51:28;;;;;;;7.97;7.18;;;;;;;;;;5012748;28;20044;-84
2023/06/11 12:53:54;;;;;;;7.47;6.65;;;;;;;;;;5013787;28;20044;-84
2023/06/11 12:56:23;;;;;;;7.90;7.00;;;;;;;;;;5013108;28;20492;-84
2023/06/11 12:58:50;;;;;;;11.82;7.03;;;;;;;;;;5012937;28;20137;-84
2023/06/11 13:01:16;;;;;;;7.70;6.65;;;;;;;;;;4996513;28;20042;-84
2023/06/11 13:03:42;;;;;;;10.32;7.20;;;;;;;;;;4985472;28;20446;-85
2023/06/11 13:06:08;;;;;;;8.18;6.90;;;;;;;;;;4995658;28;20049;-84
2023/06/11 13:08:35;;;;;;;7.95;6.90;;;;;;;;;;5011758;28;20044;-85
2023/06/11 13:11:01;;;;;;;7.72;6.88;;;;;;;;;;5012112;28;20074;-84
2023/06/11 13:13:28;;;;;;;10.05;7.40;;;;;;;;;;5012507;28;20402;-85
2023/06/11 13:15:55;;;;;;;10.00;6.93;;;;;;;;;;5012250;28;20045;-84
2023/06/11 13:18:21;;;;;;;7.53;6.78;;;;;;;;;;5011413;28;20091;-84
2023/06/11 13:20:47;;;;;;;8.05;6.43;;;;;;;;;;4996273;28;20057;-84
2023/06/11 13:23:19;;;;;;;7.43;6.63;;;;;;;;;;4995654;28;20119;-85
2023/06/11 13:25:45;;;;;;;7.35;6.65;;;;;;;;;;5012377;28;20038;-84
2023/06/11 13:28:11;;;;;;;10.20;7.07;;;;;;;;;;4996324;28;20041;-84
2023/06/11 13:30:38;;;;;;;7.68;6.88;;;;;;;;;;4990777;28;20062;-84
2023/06/11 13:33:04;;;;;;;7.90;6.68;;;;;;;;;;4987121;28;20052;-84
2023/06/11 13:35:30;;;;;;;7.78;6.97;;;;;;;;;;5011379;28;20038;-85
2023/06/11 13:37:56;;;;;;;7.63;6.82;;;;;;;;;;5012111;28;20037;-85
2023/06/11 13:40:22;;;;;;;7.88;7.07;;;;;;;;;;4997851;28;20046;-85
2023/06/11 13:42:48;;;;;;;7.63;6.68;;;;;;;;;;4992287;28;20042;-85
2023/06/11 13:45:14;;;;;;;7.28;6.63;;;;;;;;;;4992386;28;20129;-85
2023/06/11 13:47:41;;;;;;;7.65;6.95;;;;;;;;;;4987823;28;20500;-84
2023/06/11 13:50:07;;;;;;;7.47;6.63;;;;;;;;;;5013360;28;20431;-84
2023/06/11 13:52:33;;;;;;;7.63;6.50;;;;;;;;;;4995848;28;20060;-85
2023/06/11 13:54:59;;;;;;;8.88;6.97;;;;;;;;;;4994880;28;20045;-85
2023/06/11 13:57:27;;;;;;;7.63;6.47;;;;;;;;;;4995881;28;20045;-84
2023/06/11 13:59:54;;;;;;;7.57;6.78;;;;;;;;;;4994701;28;20052;-85
2023/06/11 14:02:20;;;;;;;7.10;6.40;;;;;;;;;;4992079;28;20124;-84
2023/06/11 14:04:46;;;;;;;7.68;6.57;;;;;;;;;;4976043;28;20054;-84
2023/06/11 14:07:12;;;;;;;7.60;6.70;;;;;;;;;;4992291;28;20054;-84
2023/06/11 14:09:41;;;;;;;9.52;7.00;;;;;;;;;;4977869;28;20093;-84
2023/06/11 14:12:07;;;;;;;7.75;7.03;;;;;;;;;;5011702;28;20104;-85
2023/06/11 14:14:33;;;;;;;7.88;7.07;;;;;;;;;;4995145;28;20053;-84
2023/06/11 14:17:01;;;;;;;7.13;6.10;;;;;;;;;;4994024;28;20042;-85
2023/06/11 14:19:28;;;;;;;6.97;6.28;;;;;;;;;;4983685;28;20058;-85
2023/06/11 14:21:54;;;;;;;8.60;7.18;;;;;;;;;;4996485;28;20385;-85
2023/06/11 14:24:20;;;;;;;8.13;7.18;;;;;;;;;;5005385;28;20049;-85
2023/06/11 14:26:46;;;;;;;6.93;6.20;;;;;;;;;;5021772;28;20049;-84
2023/06/11 14:29:13;;;;;;;7.95;7.10;;;;;;;;;;5000992;28;20042;-85
2023/06/11 14:31:39;;;;;;;9.40;6.38;;;;;;;;;;5013831;28;20042;-85
2023/06/11 14:34:05;;;;;;;7.57;6.88;;;;;;;;;;4998801;28;20037;-84
2023/06/11 14:36:31;;;;;;;10.13;6.70;;;;;;;;;;5015296;28;20100;-84